Time;durP1;ratioP1;P1;durP2;ratioP2;P2;SDS_P1;SDS_P2;PMS_P1;PMS_P2;Temp;Humidity;BMP_temperature;BMP_pressure;BME280_temperature;BME280_humidity;BME280_pressure;Samples;Min_cycle;Max_cycle;Signal;HPM_P1;HPM_P2
2020/12/27 00:01:09;;;;;;;;;;;;;;;6.36;100.00;96813.06;5076788;28;20390;-79
2020/12/27 00:03:35;;;;;;;;;;;;;;;6.38;100.00;96793.97;5076674;28;19932;-79
2020/12/27 00:06:02;;;;;;;;;;;;;;;6.37;100.00;96786.88;5076890;28;19925;-78
2020/12/27 00:08:29;;;;;;;;;;;;;;;6.39;100.00;96726.19;5076542;28;19964;-79
2020/12/27 00:10:55;;;;;;;;;;;;;;;6.42;100.00;96764.13;5059158;28;19974;-79
2020/12/27 00:13:22;;;;;;;;;;;;;;;6.41;100.00;96748.69;5076489;28;19924;-79
2020/12/27 00:15:49;;;;;;;;;;;;;;;6.40;100.00;96722.19;5076587;28;20016;-79
2020/12/27 00:18:15;;;;;;;;;;;;;;;6.36;100.00;96721.53;5076580;28;19931;-79
2020/12/27 00:20:42;;;;;;;;;;;;;;;6.43;100.00;96701.88;5076424;28;19925;-79
2020/12/27 00:23:08;;;;;;;;;;;;;;;6.39;100.00;96688.13;5076253;28;19924;-79
2020/12/27 00:25:39;;;;;;;;;;;;;;;6.33;100.00;96661.44;5075026;28;19931;-79
2020/12/27 00:28:06;;;;;;;;;;;;;;;6.39;100.00;96660.38;5058917;28;19931;-79
2020/12/27 00:30:32;;;;;;;;;;;;;;;6.34;100.00;96640.78;5076278;28;19964;-80
2020/12/27 00:32:59;;;;;;;;;;;;;;;6.41;100.00;96646.06;5076147;28;20410;-78
2020/12/27 00:35:25;;;;;;;;;;;;;;;6.42;100.00;96626.19;5041722;28;20407;-79
2020/12/27 00:37:52;;;;;;;;;;;;;;;6.45;100.00;96613.44;5075975;28;19932;-79
2020/12/27 00:40:18;;;;;;;;;;;;;;;6.45;100.00;96582.94;5058152;28;19924;-79
2020/12/27 00:42:45;;;;;;;;;;;;;;;6.47;100.00;96589.56;5063477;28;19924;-79
2020/12/27 00:45:12;;;;;;;;;;;;;;;6.48;100.00;96584.78;5075618;28;20013;-79
2020/12/27 00:47:38;;;;;;;;;;;;;;;6.51;100.00;96572.78;5074280;28;19932;-79
2020/12/27 00:50:05;;;;;;;;;;;;;;;6.57;100.00;96548.75;5058172;28;19925;-79
2020/12/27 00:52:31;;;;;;;;;;;;;;;6.58;100.00;96536.44;5075809;28;19932;-79
2020/12/27 00:54:58;;;;;;;;;;;;;;;6.58;100.00;96534.44;5075999;28;19924;-79
2020/12/27 00:57:24;;;;;;;;;;;;;;;6.54;100.00;96527.50;5075897;28;20025;-79
2020/12/27 00:59:51;;;;;;;;;;;;;;;6.53;100.00;96512.84;5057691;28;19925;-79
2020/12/27 01:02:22;;;;;;;;;;;;;;;6.59;100.00;96499.13;5057757;28;19925;-78
2020/12/27 01:05:13;;;;;;;;;;;;;;;6.60;100.00;96495.91;5075262;28;19924;-79
2020/12/27 01:07:39;;;;;;;;;;;;;;;6.66;100.00;96479.44;5057108;28;19924;-79
2020/12/27 01:10:16;;;;;;;;;;;;;;;6.68;100.00;96461.09;5056955;28;19948;-79
2020/12/27 01:12:44;;;;;;;;;;;;;;;6.70;100.00;96449.53;5057241;28;19924;-79
2020/12/27 01:15:11;;;;;;;;;;;;;;;6.69;100.00;96434.13;5057389;28;19978;-79
2020/12/27 01:17:57;;;;;;;;;;;;;;;6.73;100.00;96424.41;5057007;28;19924;-79
2020/12/27 01:20:24;;;;;;;;;;;;;;;6.73;100.00;96405.00;5057079;28;19932;-79
2020/12/27 01:22:51;;;;;;;;;;;;;;;6.75;100.00;96385.09;5057267;28;20340;-79
2020/12/27 01:25:26;;;;;;;;;;;;;;;6.74;100.00;96375.25;5058880;28;19924;-78
2020/12/27 01:27:54;;;;;;;;;;;;;;;6.77;100.00;96366.00;5057229;28;19935;-79
2020/12/27 01:30:20;;;;;;;;;;;;;;;6.77;100.00;96368.78;5075326;28;20368;-79
2020/12/27 01:32:54;;;;;;;;;;;;;;;6.73;100.00;96357.81;5056991;28;19924;-79
2020/12/27 01:35:31;;;;;;;;;;;;;;;6.67;100.00;96347.78;5074538;28;19924;-79
2020/12/27 01:37:58;;;;;;;;;;;;;;;6.65;100.00;96333.63;5075052;28;19932;-79
2020/12/27 01:40:25;;;;;;;;;;;;;;;6.67;100.00;96297.84;5056728;28;20383;-79
2020/12/27 01:42:55;;;;;;;;;;;;;;;6.66;100.00;96291.56;5056967;28;19931;-78
2020/12/27 01:45:24;;;;;;;;;;;;;;;6.65;100.00;96294.78;5057037;28;19928;-79
2020/12/27 01:48:14;;;;;;;;;;;;;;;6.65;100.00;96280.91;5056656;28;19924;-79
2020/12/27 01:50:45;;;;;;;;;;;;;;;6.66;100.00;96280.47;5057204;28;19925;-79
2020/12/27 01:53:26;;;;;;;;;;;;;;;6.65;100.00;96278.16;5061468;28;19925;-79
2020/12/27 01:55:53;;;;;;;;;;;;;;;6.62;100.00;96249.31;5056794;28;19946;-79
2020/12/27 01:58:20;;;;;;;;;;;;;;;6.61;100.00;96245.00;5055644;28;19977;-79
2020/12/27 02:01:06;;;;;;;;;;;;;;;6.59;100.00;96246.69;5056389;28;20032;-79
2020/12/27 02:03:40;;;;;;;;;;;;;;;6.60;100.00;96249.03;5056482;28;20355;-79
2020/12/27 02:06:16;;;;;;;;;;;;;;;6.60;100.00;96234.38;5056431;28;20322;-78
2020/12/27 02:08:48;;;;;;;;;;;;;;;6.58;100.00;96222.97;5073338;28;19929;-78
2020/12/27 02:11:24;;;;;;;;;;;;;;;6.59;100.00;96218.94;5056373;28;20287;-78
2020/12/27 02:13:52;;;;;;;;;;;;;;;6.59;100.00;96230.81;5072497;28;19924;-78
2020/12/27 02:16:20;;;;;;;;;;;;;;;6.49;100.00;96196.03;5056500;28;19928;-79
2020/12/27 02:19:08;;;;;;;;;;;;;;;6.53;100.00;96187.53;5039705;28;20399;-78
2020/12/27 02:21:36;;;;;;;;;;;;;;;6.52;100.00;96180.44;5072609;28;19931;-78
2020/12/27 02:24:02;;;;;;;;;;;;;;;6.53;100.00;96154.25;5039413;28;20413;-79
2020/12/27 02:26:30;;;;;;;;;;;;;;;6.54;100.00;96161.34;5056125;28;20311;-79
2020/12/27 02:28:57;;;;;;;;;;;;;;;6.58;100.00;96175.81;5036780;28;19925;-78
2020/12/27 02:31:24;;;;;;;;;;;;;;;6.60;100.00;96159.47;5052092;28;20022;-78
2020/12/27 02:34:03;;;;;;;;;;;;;;;6.51;100.00;96181.69;5056201;28;19925;-79
2020/12/27 02:36:32;;;;;;;;;;;;;;;6.12;100.00;96199.31;5055952;28;19972;-78
2020/12/27 02:39:06;;;;;;;;;;;;;;;5.63;100.00;96188.31;5056133;28;19924;-78
2020/12/27 02:41:35;;;;;;;;;;;;;;;5.47;100.00;96158.13;5055748;28;19931;-77
2020/12/27 02:44:09;;;;;;;;;;;;;;;5.49;100.00;96148.16;5060338;28;19924;-79
2020/12/27 02:46:52;;;;;;;;;;;;;;;5.53;100.00;96145.97;5055605;28;19932;-79
2020/12/27 02:49:50;;;;;;;;;;;;;;;5.63;100.00;96154.31;5059715;28;20279;-78
2020/12/27 02:52:18;;;;;;;;;;;;;;;5.68;100.00;96153.69;5055816;28;19925;-78
2020/12/27 02:54:45;;;;;;;;;;;;;;;5.72;100.00;96170.94;5035594;28;19967;-79
2020/12/27 02:57:14;;;;;;;;;;;;;;;5.78;100.00;96149.69;5035803;28;19994;-78
2020/12/27 02:59:41;;;;;;;;;;;;;;;5.72;100.00;96146.00;5043866;28;19924;-79
2020/12/27 03:02:28;;;;;;;;;;;;;;;5.70;100.00;96138.16;5072909;28;19928;-79
2020/12/27 03:05:11;;;;;;;;;;;;;;;5.59;100.00;96121.97;5055717;28;19925;-78
2020/12/27 03:07:37;;;;;;;;;;;;;;;5.56;100.00;96122.91;5073264;28;20009;-78
2020/12/27 03:10:10;;;;;;;;;;;;;;;5.49;100.00;96112.16;5055131;28;19924;-79
2020/12/27 03:12:43;;;;;;;;;;;;;;;5.50;100.00;96115.66;5073501;28;19924;-78
2020/12/27 03:15:10;;;;;;;;;;;;;;;5.46;100.00;96106.75;5055324;28;20028;-78
2020/12/27 03:17:57;;;;;;;;;;;;;;;5.43;100.00;96097.38;5035008;28;19924;-78
2020/12/27 03:20:44;;;;;;;;;;;;;;;5.42;100.00;96097.84;5073290;28;19924;-78
2020/12/27 03:23:12;;;;;;;;;;;;;;;5.40;100.00;96089.22;5055482;28;19933;-78
2020/12/27 03:25:53;;;;;;;;;;;;;;;5.37;100.00;96085.38;5055194;28;20329;-78
2020/12/27 03:28:19;;;;;;;;;;;;;;;5.34;100.00;96069.69;5038315;28;19925;-78
2020/12/27 03:30:53;;;;;;;;;;;;;;;5.31;100.00;96062.31;5038274;28;20002;-79
2020/12/27 03:33:26;;;;;;;;;;;;;;;5.35;100.00;96048.28;5055495;28;19924;-78
2020/12/27 03:35:56;;;;;;;;;;;;;;;5.36;100.00;96042.28;5058726;28;20334;-78
2020/12/27 03:38:27;;;;;;;;;;;;;;;5.32;100.00;96035.38;5039262;28;19932;-78
2020/12/27 03:41:09;;;;;;;;;;;;;;;5.26;100.00;96024.16;5067405;28;19931;-79
2020/12/27 03:43:47;;;;;;;;;;;;;;;5.27;100.00;96011.09;5055307;28;20016;-78
2020/12/27 03:46:22;;;;;;;;;;;;;;;5.22;100.00;96014.47;5055691;28;19955;-79
2020/12/27 03:49:13;;;;;;;;;;;;;;;5.19;100.00;96002.31;5055020;28;19971;-79
2020/12/27 03:51:59;;;;;;;;;;;;;;;5.20;100.00;95995.56;5052000;28;19931;-79
2020/12/27 03:54:48;;;;;;;;;;;;;;;5.25;100.00;95997.72;5073074;28;19924;-79
2020/12/27 03:57:41;;;;;;;;;;;;;;;5.20;100.00;95987.25;5061095;28;19928;-79
2020/12/27 04:00:24;;;;;;;;;;;;;;;5.08;100.00;95973.56;5054734;28;20043;-78
2020/12/27 04:03:00;;;;;;;;;;;;;;;5.02;100.00;95967.09;5055315;28;19924;-78
2020/12/27 04:05:28;;;;;;;;;;;;;;;5.00;100.00;95973.09;5038562;28;19967;-78
2020/12/27 04:07:55;;;;;;;;;;;;;;;4.98;100.00;95970.00;5066713;28;19924;-78
2020/12/27 04:10:22;;;;;;;;;;;;;;;4.95;100.00;95962.63;5055031;28;19925;-78
2020/12/27 04:12:49;;;;;;;;;;;;;;;4.92;100.00;95949.72;5038468;28;19977;-78
2020/12/27 04:15:16;;;;;;;;;;;;;;;4.86;100.00;95953.59;5054867;28;20437;-79
2020/12/27 04:18:08;;;;;;;;;;;;;;;4.82;100.00;95953.72;5057806;28;19931;-78
2020/12/27 04:20:53;;;;;;;;;;;;;;;4.80;100.00;95950.66;5059332;28;19935;-79
2020/12/27 04:23:20;;;;;;;;;;;;;;;4.78;100.00;95939.28;5058539;28;19928;-78
2020/12/27 04:25:47;;;;;;;;;;;;;;;4.78;100.00;95919.94;5058681;28;19925;-78
2020/12/27 04:28:14;;;;;;;;;;;;;;;4.76;100.00;95927.13;5066956;28;19931;-79
2020/12/27 04:30:42;;;;;;;;;;;;;;;4.69;100.00;95900.56;5058665;28;20002;-78
2020/12/27 04:33:27;;;;;;;;;;;;;;;4.66;100.00;95897.94;5076183;28;19925;-78
2020/12/27 04:36:11;;;;;;;;;;;;;;;4.66;100.00;95918.09;5046819;28;19925;-79
2020/12/27 04:38:38;;;;;;;;;;;;;;;4.69;100.00;95924.69;5041752;28;19947;-78
2020/12/27 04:41:04;;;;;;;;;;;;;;;4.63;100.00;95910.72;5058194;28;19924;-78
2020/12/27 04:43:32;;;;;;;;;;;;;;;4.25;100.00;95891.00;5057911;28;20375;-78
2020/12/27 04:46:03;;;;;;;;;;;;;;;3.77;100.00;95836.56;5058144;28;19929;-79
2020/12/27 04:48:34;;;;;;;;;;;;;;;3.59;100.00;95853.03;5058061;28;19928;-79
2020/12/27 04:51:06;;;;;;;;;;;;;;;3.53;100.00;95852.09;5076197;28;19925;-79
2020/12/27 04:53:36;;;;;;;;;;;;;;;3.86;100.00;95871.69;5058173;28;20395;-78
2020/12/27 04:56:08;;;;;;;;;;;;;;;3.93;100.00;95874.16;5058116;28;19925;-79
2020/12/27 04:58:55;;;;;;;;;;;;;;;3.98;100.00;95881.88;5075390;28;19925;-78
2020/12/27 05:01:23;;;;;;;;;;;;;;;3.98;100.00;95881.88;5057973;28;19928;-78
2020/12/27 05:04:08;;;;;;;;;;;;;;;4.09;100.00;95899.53;5075867;28;20293;-78
2020/12/27 05:06:43;;;;;;;;;;;;;;;4.13;100.00;95886.38;5057801;28;19931;-79
2020/12/27 05:09:12;;;;;;;;;;;;;;;4.19;100.00;95900.34;5057958;28;19925;-78
2020/12/27 05:11:38;;;;;;;;;;;;;;;4.01;100.00;95928.69;5057573;28;19925;-78
2020/12/27 05:14:15;;;;;;;;;;;;;;;3.41;100.00;95919.19;5075688;28;19925;-78
2020/12/27 05:16:54;;;;;;;;;;;;;;;3.02;100.00;95915.13;5057880;28;19924;-78
2020/12/27 05:19:25;;;;;;;;;;;;;;;2.82;100.00;95883.56;5037805;28;20000;-78
2020/12/27 05:21:54;;;;;;;;;;;;;;;2.74;100.00;95874.03;5044883;28;19932;-78
2020/12/27 05:24:41;;;;;;;;;;;;;;;2.72;100.00;95879.22;5041263;28;20081;-78
2020/12/27 05:27:26;;;;;;;;;;;;;;;2.71;100.00;95866.66;5046671;28;20027;-78
2020/12/27 05:30:14;;;;;;;;;;;;;;;2.74;100.00;95863.00;5057650;28;20352;-79
2020/12/27 05:33:13;;;;;;;;;;;;;;;2.80;100.00;95872.97;5029754;28;19932;-79
2020/12/27 05:36:01;;;;;;;;;;;;;;;2.84;100.00;95868.13;5018739;28;19925;-78
2020/12/27 05:38:33;;;;;;;;;;;;;;;2.85;100.00;95864.16;5018078;28;20381;-78
2020/12/27 05:41:24;;;;;;;;;;;;;;;2.87;100.00;95864.47;5031396;28;19925;-78
2020/12/27 05:44:01;;;;;;;;;;;;;;;2.90;100.00;95869.09;5014954;28;20016;-79
2020/12/27 05:46:30;;;;;;;;;;;;;;;2.97;100.00;95854.28;5014607;28;20035;-78
2020/12/27 05:48:57;;;;;;;;;;;;;;;3.04;100.00;95868.56;5016523;28;19988;-79
2020/12/27 05:51:24;;;;;;;;;;;;;;;3.02;100.00;95861.97;4996830;28;20062;-79
2020/12/27 05:53:52;;;;;;;;;;;;;;;3.02;100.00;95857.22;5014056;28;20229;-78
2020/12/27 05:56:26;;;;;;;;;;;;;;;2.98;100.00;95864.88;5015805;28;20035;-78
2020/12/27 05:58:58;;;;;;;;;;;;;;;3.01;100.00;95869.47;5014062;28;20340;-79
2020/12/27 06:01:30;;;;;;;;;;;;;;;2.84;100.00;95870.13;5009473;28;20293;-79
2020/12/27 06:04:03;;;;;;;;;;;;;;;2.60;100.00;95855.25;5005714;28;19931;-79
2020/12/27 06:06:55;;;;;;;;;;;;;;;2.56;100.00;95849.09;4995961;28;20382;-78
2020/12/27 06:10:03;;;;;;;;;;;;;;;2.55;100.00;95850.28;5008878;28;20460;-78
2020/12/27 06:12:57;;;;;;;;;;;;;;;2.58;100.00;95846.63;5056471;28;20377;-78
2020/12/27 06:15:29;;;;;;;;;;;;;;;2.62;100.00;95847.31;5056424;28;20013;-78
2020/12/27 06:18:15;;;;;;;;;;;;;;;2.70;100.00;95857.63;5056111;28;20299;-78
2020/12/27 06:21:11;;;;;;;;;;;;;;;2.73;100.00;95864.97;5056445;28;19981;-78
2020/12/27 06:23:45;;;;;;;;;;;;;;;2.74;100.00;95865.75;5055870;28;20295;-79
2020/12/27 06:26:12;;;;;;;;;;;;;;;2.71;100.00;95858.38;5056326;28;19958;-78
2020/12/27 06:28:55;;;;;;;;;;;;;;;2.65;100.00;95866.44;5055306;28;20394;-79
2020/12/27 06:31:25;;;;;;;;;;;;;;;2.61;100.00;95867.78;5056166;28;19955;-78
2020/12/27 06:33:52;;;;;;;;;;;;;;;2.67;100.00;95838.44;5077721;28;19931;-78
2020/12/27 06:36:34;;;;;;;;;;;;;;;2.69;100.00;95858.84;5061945;28;19931;-78
2020/12/27 06:39:23;;;;;;;;;;;;;;;2.68;100.00;95857.28;5060807;28;20394;-78
2020/12/27 06:42:10;;;;;;;;;;;;;;;2.65;100.00;95852.66;5061487;28;19925;-78
2020/12/27 06:44:52;;;;;;;;;;;;;;;2.64;100.00;95855.88;5061577;28;19928;-78
2020/12/27 06:47:46;;;;;;;;;;;;;;;2.60;100.00;95855.25;5074080;28;19924;-77
2020/12/27 06:50:17;;;;;;;;;;;;;;;2.52;100.00;95848.44;5056368;28;20009;-78
2020/12/27 06:52:55;;;;;;;;;;;;;;;2.42;100.00;95844.84;5055947;28;20375;-76
2020/12/27 06:55:41;;;;;;;;;;;;;;;2.32;100.00;95839.72;5056240;28;20376;-78
2020/12/27 06:58:24;;;;;;;;;;;;;;;2.25;100.00;95835.22;5035653;28;20379;-78
2020/12/27 07:01:15;;;;;;;;;;;;;;;2.20;100.00;95821.22;5062816;28;20379;-77
2020/12/27 07:03:42;;;;;;;;;;;;;;;2.12;100.00;95817.94;5073398;28;20006;-79
2020/12/27 07:06:17;;;;;;;;;;;;;;;2.04;100.00;95802.13;5035183;28;20395;-79
2020/12/27 07:08:56;;;;;;;;;;;;;;;2.03;100.00;95800.59;5040635;28;19947;-79
2020/12/27 07:11:28;;;;;;;;;;;;;;;2.07;100.00;95809.50;5055996;28;19924;-78
2020/12/27 07:13:57;;;;;;;;;;;;;;;2.16;100.00;95804.06;5066982;28;19929;-78
2020/12/27 07:16:40;;;;;;;;;;;;;;;2.23;100.00;95799.06;5053478;28;20444;-78
2020/12/27 07:19:06;;;;;;;;;;;;;;;2.28;100.00;95817.00;5063458;28;19931;-78
2020/12/27 07:21:36;;;;;;;;;;;;;;;2.30;100.00;95820.09;5073262;28;19925;-78
2020/12/27 07:24:05;;;;;;;;;;;;;;;2.29;100.00;95824.09;5073139;28;19924;-79
2020/12/27 07:26:32;;;;;;;;;;;;;;;2.11;100.00;95821.16;5073460;28;19932;-78
2020/12/27 07:29:05;;;;;;;;;;;;;;;1.91;100.00;95810.41;5073024;28;19924;-78
2020/12/27 07:31:36;;;;;;;;;;;;;;;1.77;100.00;95811.66;5073406;28;19939;-79
2020/12/27 07:34:05;;;;;;;;;;;;;;;1.79;100.00;95806.50;5073079;28;19924;-79
2020/12/27 07:36:33;;;;;;;;;;;;;;;1.80;100.00;95799.00;5072947;28;19948;-79
2020/12/27 07:39:32;;;;;;;;;;;;;;;1.80;100.00;95799.75;5055138;28;20019;-79
2020/12/27 07:42:24;;;;;;;;;;;;;;;1.82;100.00;95811.09;5055269;28;19966;-78
2020/12/27 07:44:51;;;;;;;;;;;;;;;1.92;100.00;95811.19;5073052;28;19931;-79
2020/12/27 07:47:18;;;;;;;;;;;;;;;1.99;100.00;95816.44;5073425;28;19978;-79
2020/12/27 07:50:04;;;;;;;;;;;;;;;2.03;100.00;95817.13;5073215;28;19924;-79
2020/12/27 07:52:44;;;;;;;;;;;;;;;2.04;100.00;95829.66;5073003;28;20387;-79
2020/12/27 07:55:19;;;;;;;;;;;;;;;2.04;100.00;95849.72;5073184;28;20035;-79
2020/12/27 07:57:46;;;;;;;;;;;;;;;1.94;100.00;95855.56;5076740;28;19959;-78
2020/12/27 08:00:12;;;;;;;;;;;;;;;1.79;100.00;95858.00;5076475;28;19929;-79
2020/12/27 08:02:43;;;;;;;;;;;;;;;1.73;100.00;95852.31;5058624;28;19924;-80
2020/12/27 08:05:11;;;;;;;;;;;;;;;1.72;100.00;95850.78;5076463;28;20291;-79
2020/12/27 08:07:38;;;;;;;;;;;;;;;1.68;100.00;95835.59;5076867;28;19924;-79
2020/12/27 08:10:20;;;;;;;;;;;;;;;1.66;100.00;95830.53;5076644;28;19931;-79
2020/12/27 08:12:47;;;;;;;;;;;;;;;1.68;100.00;95830.84;5058525;28;20363;-77
2020/12/27 08:15:14;;;;;;;;;;;;;;;1.74;100.00;95831.81;5040680;28;20379;-79
2020/12/27 08:17:53;;;;;;;;;;;;;;;1.82;100.00;95835.88;5071795;28;19956;-79
2020/12/27 08:20:20;;;;;;;;;;;;;;;1.92;100.00;95852.50;5058715;28;19974;-81
2020/12/27 08:22:57;;;;;;;;;;;;;;;1.84;100.00;95849.19;5058741;28;19932;-78
2020/12/27 08:25:24;;;;;;;;;;;;;;;1.70;100.00;95833.13;5058203;28;19971;-78
2020/12/27 08:27:54;;;;;;;;;;;;;;;1.59;100.00;95822.47;5076523;28;19924;-78
2020/12/27 08:30:20;;;;;;;;;;;;;;;1.54;100.00;95825.03;5073370;28;20332;-79
2020/12/27 08:32:47;;;;;;;;;;;;;;;1.58;100.00;95826.44;5058072;28;19925;-79
2020/12/27 08:35:24;;;;;;;;;;;;;;;1.65;100.00;95837.22;5076054;28;19928;-78
2020/12/27 08:37:58;;;;;;;;;;;;;;;1.67;100.00;95829.31;5073094;28;19925;-79
2020/12/27 08:40:28;;;;;;;;;;;;;;;1.71;100.00;95829.19;5076090;28;19925;-79
2020/12/27 08:42:55;;;;;;;;;;;;;;;1.75;100.00;95836.13;5057654;28;19934;-79
2020/12/27 08:45:21;;;;;;;;;;;;;;;1.82;100.00;95833.13;5075735;28;20058;-79
2020/12/27 08:47:57;;;;;;;;;;;;;;;1.84;100.00;95829.94;5072673;28;20013;-79
2020/12/27 08:50:32;;;;;;;;;;;;;;;1.88;100.00;95817.59;5075407;28;19924;-78
2020/12/27 08:53:00;;;;;;;;;;;;;;;1.95;100.00;95811.09;5058718;28;20343;-86
2020/12/27 08:55:30;;;;;;;;;;;;;;;1.97;100.00;95805.13;5058378;28;19929;-86
2020/12/27 08:57:59;;;;;;;;;;;;;;;2.06;100.00;95818.97;5042533;28;20381;-90
2020/12/27 09:00:32;;;;;;;;;;;;;;;2.01;100.00;95822.28;5026031;28;20269;-89
2020/12/27 09:03:06;;;;;;;;;;;;;;;1.88;100.00;95805.81;5043029;28;20011;-87
2020/12/27 09:05:34;;;;;;;;;;;;;;;1.80;100.00;95808.03;5026019;28;20335;-90
2020/12/27 09:08:01;;;;;;;;;;;;;;;1.76;100.00;95799.13;5042413;28;19931;-90
2020/12/27 09:10:28;;;;;;;;;;;;;;;1.79;100.00;95781.72;5010119;28;20042;-87
2020/12/27 09:13:12;;;;;;;;;;;;;;;1.94;100.00;95786.75;5058629;28;19925;-85
2020/12/27 09:15:38;;;;;;;;;;;;;;;1.99;100.00;95780.66;5041764;28;19960;-86
2020/12/27 09:18:09;;;;;;;;;;;;;;;2.06;100.00;95783.94;5041110;28;20372;-86
2020/12/27 09:20:37;;;;;;;;;;;;;;;2.11;100.00;95788.09;5041593;28;20384;-88
2020/12/27 09:23:17;;;;;;;;;;;;;;;2.18;100.00;95779.59;5024802;28;19931;-82
2020/12/27 09:25:45;;;;;;;;;;;;;;;2.23;100.00;95765.28;5058257;28;19931;-81
2020/12/27 09:28:13;;;;;;;;;;;;;;;2.18;100.00;95758.31;5075279;28;19933;-79
2020/12/27 09:30:42;;;;;;;;;;;;;;;2.16;100.00;95768.25;5075542;28;19932;-82
2020/12/27 09:33:08;;;;;;;;;;;;;;;2.17;100.00;95770.56;5057324;28;19925;-81
2020/12/27 09:35:35;;;;;;;;;;;;;;;2.26;100.00;95753.38;5074253;28;20022;-81
2020/12/27 09:38:02;;;;;;;;;;;;;;;2.29;100.00;95753.22;5057399;28;19935;-81
2020/12/27 09:40:36;;;;;;;;;;;;;;;2.27;100.00;95735.59;5074928;28;19974;-81
2020/12/27 09:43:03;;;;;;;;;;;;;;;2.18;100.00;95721.78;5075167;28;19932;-80
2020/12/27 09:45:32;;;;;;;;;;;;;;;2.16;100.00;95711.22;5060616;28;19924;-81
2020/12/27 09:48:00;;;;;;;;;;;;;;;2.20;100.00;95711.84;5063392;28;19925;-75
2020/12/27 09:50:28;;;;;;;;;;;;;;;2.22;100.00;95706.66;5068688;28;19924;-76
2020/12/27 09:52:55;;;;;;;;;;;;;;;2.22;100.00;95689.34;5051690;28;20367;-76
2020/12/27 09:55:22;;;;;;;;;;;;;;;2.21;100.00;95701.59;5053062;28;19974;-76
2020/12/27 09:57:49;;;;;;;;;;;;;;;2.17;100.00;95700.94;5053146;28;19928;-81
2020/12/27 10:00:16;;;;;;;;;;;;;;;2.23;100.00;95705.44;5073245;28;19929;-77
2020/12/27 10:02:43;;;;;;;;;;;;;;;2.33;100.00;95692.50;5052294;28;19934;-76
2020/12/27 10:05:10;;;;;;;;;;;;;;;2.31;100.00;95689.41;5035960;28;19947;-75
2020/12/27 10:07:41;;;;;;;;;;;;;;;2.29;100.00;95667.06;5052068;28;20404;-76
2020/12/27 10:10:09;;;;;;;;;;;;;;;2.27;100.00;95688.78;5068629;28;20019;-77
2020/12/27 10:12:37;;;;;;;;;;;;;;;2.25;100.00;95675.47;5051506;28;19924;-79
2020/12/27 10:15:05;;;;;;;;;;;;;;;2.27;100.00;95669.50;5070458;28;19925;-79
2020/12/27 10:17:32;;;;;;;;;;;;;;;2.23;100.00;95661.38;5064553;28;19924;-79
2020/12/27 10:19:59;;;;;;;;;;;;;;;2.26;100.00;95670.72;5055153;28;19925;-80
2020/12/27 10:22:26;;;;;;;;;;;;;;;2.28;100.00;95669.06;5064354;28;20025;-80
2020/12/27 10:24:53;;;;;;;;;;;;;;;2.30;100.00;95650.09;5045616;28;19935;-80
2020/12/27 10:27:20;;;;;;;;;;;;;;;2.31;100.00;95639.81;5019162;28;19932;-79
2020/12/27 10:29:46;;;;;;;;;;;;;;;2.32;100.00;95646.91;5070162;28;19924;-80
2020/12/27 10:32:13;;;;;;;;;;;;;;;2.33;100.00;95624.41;5054983;28;19963;-80
2020/12/27 10:34:40;;;;;;;;;;;;;;;2.33;100.00;95631.91;5056043;28;19928;-79
2020/12/27 10:37:06;;;;;;;;;;;;;;;2.35;100.00;95608.16;5073894;28;20419;-79
2020/12/27 10:39:33;;;;;;;;;;;;;;;2.38;100.00;95614.78;5055856;28;19932;-79
2020/12/27 10:41:59;;;;;;;;;;;;;;;2.41;100.00;95605.63;5073558;28;19924;-78
2020/12/27 10:44:26;;;;;;;;;;;;;;;2.44;100.00;95604.72;5073369;28;20015;-78
2020/12/27 10:46:53;;;;;;;;;;;;;;;2.46;100.00;95607.75;5055631;28;19925;-78
2020/12/27 10:49:20;;;;;;;;;;;;;;;2.44;100.00;95608.22;5056434;28;19925;-78
2020/12/27 10:51:47;;;;;;;;;;;;;;;2.53;100.00;95579.94;5055291;28;20394;-79
2020/12/27 10:54:14;;;;;;;;;;;;;;;2.58;100.00;95596.66;5067259;28;20435;-79
2020/12/27 10:56:44;;;;;;;;;;;;;;;2.60;100.00;95568.63;5061904;28;19931;-78
2020/12/27 10:59:11;;;;;;;;;;;;;;;2.62;100.00;95566.19;5055417;28;20003;-78
2020/12/27 11:01:42;;;;;;;;;;;;;;;2.63;100.00;95562.22;5022353;28;19932;-79
2020/12/27 11:04:08;;;;;;;;;;;;;;;2.68;100.00;95572.66;5073230;28;19932;-79
2020/12/27 11:06:35;;;;;;;;;;;;;;;2.70;100.00;95556.41;5038412;28;19928;-79
2020/12/27 11:09:02;;;;;;;;;;;;;;;2.70;100.00;95550.88;5059167;28;20398;-76
2020/12/27 11:11:34;;;;;;;;;;;;;;;2.63;100.00;95534.66;5067608;28;20386;-77
2020/12/27 11:14:01;;;;;;;;;;;;;;;2.63;100.00;95537.41;5044284;28;19924;-76
2020/12/27 11:16:27;;;;;;;;;;;;;;;2.65;100.00;95521.19;5072710;28;19977;-77
2020/12/27 11:18:53;;;;;;;;;;;;;;;2.67;100.00;95507.69;5069050;28;19928;-78
2020/12/27 11:21:20;;;;;;;;;;;;;;;2.67;100.00;95502.97;5067605;28;20022;-77
2020/12/27 11:23:46;;;;;;;;;;;;;;;2.66;100.00;95486.88;5068876;28;20345;-76
2020/12/27 11:26:17;;;;;;;;;;;;;;;2.69;100.00;95484.00;5068311;28;19933;-83
2020/12/27 11:28:45;;;;;;;;;;;;;;;2.72;100.00;95476.78;5053435;28;20023;-81
2020/12/27 11:31:14;;;;;;;;;;;;;;;2.71;100.00;95456.72;5041717;28;20527;-81
2020/12/27 11:33:40;;;;;;;;;;;;;;;2.72;100.00;95465.75;5059982;28;20318;-81
2020/12/27 11:36:09;;;;;;;;;;;;;;;2.76;100.00;95449.84;5060091;28;19998;-80
2020/12/27 11:38:35;;;;;;;;;;;;;;;2.85;100.00;95436.81;5061043;28;19924;-80
2020/12/27 11:41:02;;;;;;;;;;;;;;;2.83;100.00;95424.75;5077522;28;19935;-80
2020/12/27 11:43:30;;;;;;;;;;;;;;;2.80;100.00;95422.91;5070398;28;19924;-81
2020/12/27 11:45:58;;;;;;;;;;;;;;;2.85;100.00;95428.56;5076236;28;19928;-81
2020/12/27 11:48:25;;;;;;;;;;;;;;;2.94;100.00;95417.53;5043043;28;20023;-81
2020/12/27 11:50:52;;;;;;;;;;;;;;;3.03;100.00;95427.81;5056959;28;20298;-81
2020/12/27 11:53:19;;;;;;;;;;;;;;;2.99;100.00;95424.41;5059205;28;19963;-81
2020/12/27 11:55:46;;;;;;;;;;;;;;;2.98;100.00;95428.41;5059778;28;19931;-81
2020/12/27 11:58:13;;;;;;;;;;;;;;;3.03;100.00;95416.78;5076716;28;20508;-81
2020/12/27 12:00:39;;;;;;;;;;;;;;;3.13;100.00;95421.03;5042990;28;19935;-82
2020/12/27 12:03:06;;;;;;;;;;;;;;;3.10;100.00;95408.16;5026344;28;19932;-81
2020/12/27 12:05:32;;;;;;;;;;;;;;;3.09;100.00;95412.91;5077364;28;20395;-83
2020/12/27 12:07:59;;;;;;;;;;;;;;;3.09;100.00;95412.16;5043129;28;20013;-83
2020/12/27 12:10:26;;;;;;;;;;;;;;;3.20;100.00;95415.19;5077229;28;20021;-83
2020/12/27 12:12:53;;;;;;;;;;;;;;;3.24;100.00;95416.56;5042636;28;20070;-82
2020/12/27 12:15:19;;;;;;;;;;;;;;;3.33;100.00;95416.53;5060821;28;19950;-83
2020/12/27 12:17:46;;;;;;;;;;;;;;;3.39;100.00;95419.47;5058797;28;19924;-81
2020/12/27 12:22:58;;;;;;;;;;;;;;;3.47;100.00;95426.16;5025572;28;19931;-82
2020/12/27 12:25:24;;;;;;;;;;;;;;;3.50;100.00;95430.75;5058761;28;19938;-83
2020/12/27 12:27:51;;;;;;;;;;;;;;;3.63;100.00;95423.06;5042220;28;20417;-84
2020/12/27 12:30:17;;;;;;;;;;;;;;;3.66;100.00;95416.63;5058832;28;19970;-84
2020/12/27 12:32:44;;;;;;;;;;;;;;;3.70;100.00;95412.47;5047715;28;20558;-83
2020/12/27 12:35:11;;;;;;;;;;;;;;;3.67;100.00;95407.09;5025255;28;20335;-83
2020/12/27 12:37:37;;;;;;;;;;;;;;;3.77;100.00;95405.06;5074557;28;19925;-83
2020/12/27 12:40:05;;;;;;;;;;;;;;;3.82;100.00;95396.91;5058347;28;20007;-84
2020/12/27 12:42:36;;;;;;;;;;;;;;;3.79;100.00;95384.03;5057531;28;19978;-84
2020/12/27 12:45:03;;;;;;;;;;;;;;;3.83;100.00;95376.38;5042363;28;19931;-83
2020/12/27 12:47:30;;;;;;;;;;;;;;;3.84;100.00;95375.13;5058523;28;20344;-82
2020/12/27 12:49:58;;;;;;;;;;;;;;;3.75;100.00;95369.66;5052780;28;19974;-83
2020/12/27 12:52:24;;;;;;;;;;;;;;;3.73;100.00;95363.81;5041879;28;20383;-83
2020/12/27 12:54:51;;;;;;;;;;;;;;;3.73;100.00;95366.59;5054910;28;19925;-81
2020/12/27 12:57:18;;;;;;;;;;;;;;;3.71;100.00;95352.50;5037989;28;19931;-85
2020/12/27 12:59:44;;;;;;;;;;;;;;;3.77;100.00;95355.38;5051929;28;19924;-82
2020/12/27 13:02:12;;;;;;;;;;;;;;;3.82;100.00;95347.22;5073651;28;19925;-84
2020/12/27 13:04:38;;;;;;;;;;;;;;;3.83;100.00;95343.25;5075552;28;19932;-85
2020/12/27 13:07:05;;;;;;;;;;;;;;;3.88;100.00;95337.06;5025362;28;19947;-85
2020/12/27 13:09:31;;;;;;;;;;;;;;;4.05;100.00;95346.47;5075595;28;20001;-86
2020/12/27 13:11:58;;;;;;;;;;;;;;;4.22;100.00;95299.88;5058232;28;19932;-85
2020/12/27 13:14:25;;;;;;;;;;;;;;;4.23;100.00;95293.88;5042042;28;20371;-86